createdAt,value
2023-02-25T00:01:27.887Z,12.02
2023-02-25T00:03:56.892Z,7.40
2023-02-25T00:06:24.765Z,8.77
2023-02-25T00:08:52.830Z,15.93
2023-02-25T00:11:20.985Z,13.30
2023-02-25T00:13:48.002Z,10.10
2023-02-25T00:16:16.192Z,15.18
2023-02-25T00:18:47.110Z,9.85
2023-02-25T00:21:16.372Z,12.73
2023-02-25T00:23:47.915Z,8.65
2023-02-25T00:26:16.726Z,13.52
2023-02-25T00:28:44.408Z,8.45
2023-02-25T00:31:15.679Z,8.15
2023-02-25T00:33:43.655Z,8.68
2023-02-25T00:36:14.720Z,13.45
2023-02-25T00:38:41.930Z,12.50
2023-02-25T00:41:14.261Z,4.60
2023-02-25T00:46:12.453Z,11.02
2023-02-25T00:48:40.563Z,12.10
2023-02-25T00:51:19.647Z,8.68
2023-02-25T00:53:46.886Z,11.68
2023-02-25T00:56:16.017Z,7.57
2023-02-25T00:58:45.032Z,9.85
2023-02-25T01:01:22.625Z,11.52
2023-02-25T01:03:51.611Z,10.90
2023-02-25T01:06:20.047Z,9.75
2023-02-25T01:08:47.750Z,13.68
2023-02-25T01:11:21.272Z,11.90
2023-02-25T01:13:50.256Z,12.73
2023-02-25T01:16:21.431Z,12.38
2023-02-25T01:18:53.095Z,15.00
2023-02-25T01:21:40.820Z,14.15
2023-02-25T01:24:12.584Z,11.43
2023-02-25T01:26:44.829Z,17.10
2023-02-25T01:29:19.305Z,13.10
2023-02-25T01:31:46.874Z,11.75
2023-02-25T01:34:17.883Z,14.70
2023-02-25T01:36:45.541Z,7.07
2023-02-25T01:39:14.278Z,12.18
2023-02-25T01:41:42.015Z,12.60
2023-02-25T01:44:22.532Z,18.55
2023-02-25T01:46:53.343Z,15.90
2023-02-25T01:49:33.066Z,17.50
2023-02-25T01:52:11.675Z,14.32
2023-02-25T01:54:39.535Z,11.90
2023-02-25T01:57:11.008Z,18.33
2023-02-25T01:59:40.370Z,13.73
2023-02-25T02:02:13.976Z,13.65
2023-02-25T02:04:43.278Z,13.27
2023-02-25T02:07:11.273Z,15.15
2023-02-25T02:09:40.523Z,10.00
2023-02-25T02:12:08.382Z,15.93
2023-02-25T02:14:41.767Z,16.17
2023-02-25T02:17:44.392Z,15.45
2023-02-25T02:20:15.486Z,13.32
2023-02-25T02:22:47.659Z,16.50
2023-02-25T02:25:20.961Z,12.05
2023-02-25T02:28:36.002Z,11.63
2023-02-25T02:31:14.276Z,15.32
2023-02-25T02:33:56.471Z,18.20
2023-02-25T02:36:47.941Z,14.15
2023-02-25T02:39:33.123Z,12.73
2023-02-25T02:42:11.397Z,11.80
2023-02-25T02:44:56.439Z,15.50
2023-02-25T02:47:34.791Z,18.90
2023-02-25T02:50:20.770Z,14.52
2023-02-25T02:52:52.605Z,12.38
2023-02-25T02:55:22.696Z,16.48
2023-02-25T02:57:58.164Z,14.18
2023-02-25T03:00:30.145Z,16.05
2023-02-25T03:03:10.439Z,11.07
2023-02-25T03:05:41.333Z,15.30
2023-02-25T03:08:14.200Z,13.68
2023-02-25T03:10:41.463Z,16.08
2023-02-25T03:13:09.134Z,13.32
2023-02-25T03:15:39.959Z,14.20
2023-02-25T03:18:25.747Z,17.05
2023-02-25T03:20:56.366Z,18.20
2023-02-25T03:23:29.027Z,16.15
2023-02-25T03:28:34.462Z,12.50
2023-02-25T03:31:12.127Z,15.27
2023-02-25T03:33:56.875Z,13.45
2023-02-25T03:36:35.069Z,9.38
2023-02-25T03:39:11.581Z,12.82
2023-02-25T03:41:45.231Z,16.52
2023-02-25T03:44:18.391Z,11.70
2023-02-25T03:46:47.946Z,22.20
2023-02-25T03:49:21.995Z,18.80
2023-02-25T03:51:52.304Z,12.13
2023-02-25T03:54:20.041Z,11.05
2023-02-25T03:56:50.775Z,21.25
2023-02-25T03:59:19.938Z,17.05
2023-02-25T04:01:50.691Z,13.75
2023-02-25T04:04:17.918Z,17.63
2023-02-25T04:06:45.319Z,8.85
2023-02-25T04:09:13.449Z,15.48
2023-02-25T04:11:42.231Z,13.25
2023-02-25T04:14:09.348Z,11.85
2023-02-25T04:16:37.352Z,12.95
2023-02-25T04:19:08.089Z,14.63
2023-02-25T04:21:37.163Z,13.60
2023-02-25T04:24:07.036Z,10.20
2023-02-25T04:26:35.590Z,15.50
2023-02-25T04:29:04.078Z,12.43
2023-02-25T04:31:31.724Z,9.90
2023-02-25T04:33:59.262Z,20.83
2023-02-25T04:36:35.728Z,16.02
2023-02-25T04:39:05.646Z,13.65
2023-02-25T04:41:36.020Z,12.57
2023-02-25T04:44:05.024Z,15.00
2023-02-25T04:46:34.562Z,17.77
2023-02-25T04:49:03.163Z,13.57
2023-02-25T04:51:30.667Z,16.05
2023-02-25T04:53:58.527Z,14.63
2023-02-25T04:56:26.877Z,13.70
2023-02-25T04:58:54.490Z,26.08
2023-02-25T05:01:22.388Z,19.83
2023-02-25T05:03:50.318Z,13.25
2023-02-25T05:06:17.679Z,15.18
2023-02-25T05:08:44.952Z,10.38
2023-02-25T05:11:12.487Z,20.35
2023-02-25T05:13:39.583Z,15.30
2023-02-25T05:16:10.068Z,19.02
2023-02-25T05:18:38.938Z,13.95
2023-02-25T05:21:15.117Z,22.67
2023-02-25T05:23:44.780Z,18.67
2023-02-25T05:26:13.206Z,13.60
2023-02-25T05:28:41.612Z,17.60
2023-02-25T05:31:11.642Z,20.13
2023-02-25T05:33:41.042Z,22.63
2023-02-25T05:36:10.808Z,27.25
2023-02-25T05:38:38.132Z,20.30
2023-02-25T05:41:07.064Z,24.33
2023-02-25T05:43:35.793Z,27.55
2023-02-25T05:46:03.624Z,17.27
2023-02-25T05:48:34.388Z,22.63
2023-02-25T05:51:04.953Z,13.45
2023-02-25T05:53:32.765Z,22.17
2023-02-25T05:56:03.801Z,22.75
2023-02-25T05:58:31.251Z,24.85
2023-02-25T06:00:58.587Z,23.00
2023-02-25T06:03:26.702Z,31.75
2023-02-25T06:05:53.796Z,20.52
2023-02-25T06:08:20.989Z,24.98
2023-02-25T06:10:48.822Z,27.80
2023-02-25T06:13:16.164Z,25.67
2023-02-25T06:15:44.387Z,20.42
2023-02-25T06:18:11.652Z,26.52
2023-02-25T06:20:39.267Z,30.40
2023-02-25T06:23:09.679Z,32.45
2023-02-25T06:25:37.432Z,27.77
2023-02-25T06:28:05.028Z,27.00
2023-02-25T06:30:32.695Z,22.30
2023-02-25T06:32:59.982Z,19.77
2023-02-25T06:35:27.493Z,26.48
2023-02-25T06:37:59.574Z,19.17
2023-02-25T06:40:29.425Z,27.70
2023-02-25T06:42:56.832Z,25.77
2023-02-25T06:45:24.425Z,22.38
2023-02-25T06:47:52.147Z,31.88
2023-02-25T06:50:20.604Z,25.92
2023-02-25T06:52:48.057Z,26.90
2023-02-25T06:55:15.796Z,26.98
2023-02-25T06:57:43.669Z,27.60
2023-02-25T07:00:12.105Z,26.98
2023-02-25T07:02:39.615Z,27.10
2023-02-25T07:05:07.590Z,35.45
2023-02-25T07:07:35.279Z,27.45
2023-02-25T07:10:03.025Z,16.17
2023-02-25T07:12:31.595Z,19.27
2023-02-25T07:14:59.707Z,23.55
2023-02-25T07:17:27.798Z,31.05
2023-02-25T07:19:56.566Z,26.85
2023-02-25T07:22:26.259Z,31.70
2023-02-25T07:24:53.630Z,26.55
2023-02-25T07:27:20.991Z,29.27
2023-02-25T07:29:48.613Z,26.38
2023-02-25T07:32:19.349Z,27.33
2023-02-25T07:34:48.072Z,24.38
2023-02-25T07:37:15.304Z,30.05
2023-02-25T07:39:42.383Z,27.58
2023-02-25T07:42:09.912Z,29.10
2023-02-25T07:44:37.773Z,22.15
2023-02-25T07:47:05.432Z,22.25
2023-02-25T07:49:33.922Z,20.88
2023-02-25T07:52:02.249Z,26.02
2023-02-25T07:54:30.207Z,25.85
2023-02-25T07:56:57.750Z,23.27
2023-02-25T07:59:28.005Z,23.23
2023-02-25T08:01:55.627Z,25.58
2023-02-25T08:04:23.582Z,21.33
2023-02-25T08:06:51.963Z,15.68
2023-02-25T08:09:19.564Z,21.52
2023-02-25T08:11:47.478Z,20.42
2023-02-25T08:14:15.768Z,23.75
2023-02-25T08:16:43.692Z,23.33
2023-02-25T08:19:11.866Z,29.35
2023-02-25T08:21:40.772Z,21.27
2023-02-25T08:24:08.554Z,26.40
2023-02-25T08:26:35.975Z,18.35
2023-02-25T08:29:04.128Z,23.25
2023-02-25T08:31:31.929Z,21.30
2023-02-25T08:33:59.719Z,17.50
2023-02-25T08:36:30.705Z,20.40
2023-02-25T08:39:00.193Z,21.77
2023-02-25T08:41:29.645Z,19.63
2023-02-25T08:44:00.795Z,22.13
2023-02-25T08:46:31.889Z,26.15
2023-02-25T08:49:00.741Z,14.77
2023-02-25T08:51:34.677Z,17.70
2023-02-25T08:54:04.387Z,17.05
2023-02-25T08:56:31.738Z,20.05
2023-02-25T08:58:59.788Z,21.35
2023-02-25T09:01:28.762Z,20.67
2023-02-25T09:03:58.741Z,24.38
2023-02-25T09:06:28.177Z,21.83
2023-02-25T09:08:56.833Z,25.25
2023-02-25T09:11:26.006Z,20.85
2023-02-25T09:13:54.251Z,23.25
2023-02-25T09:16:21.639Z,22.23
2023-02-25T09:18:51.709Z,21.70
2023-02-25T09:21:19.920Z,18.33
2023-02-25T09:23:47.261Z,21.40
2023-02-25T09:26:15.166Z,20.88
2023-02-25T09:28:42.432Z,20.90
2023-02-25T09:31:10.195Z,19.55
2023-02-25T09:33:38.774Z,20.35
2023-02-25T09:36:10.813Z,20.20
2023-02-25T09:38:40.794Z,19.55
2023-02-25T09:41:31.172Z,12.98
2023-02-25T09:44:10.999Z,16.38
2023-02-25T09:46:47.020Z,22.02
2023-02-25T09:49:32.226Z,13.73
2023-02-25T09:52:07.930Z,19.67
2023-02-25T09:54:42.657Z,12.88
2023-02-25T09:57:19.142Z,19.70
2023-02-25T09:59:47.542Z,15.45
2023-02-25T10:02:20.458Z,17.05
2023-02-25T10:05:33.512Z,16.52
2023-02-25T10:08:19.065Z,15.95
2023-02-25T10:11:10.559Z,14.50
2023-02-25T10:14:05.542Z,14.73
2023-02-25T10:16:56.609Z,10.80
2023-02-25T10:19:39.183Z,13.55
2023-02-25T10:22:22.076Z,13.38
2023-02-25T10:24:54.029Z,12.45
2023-02-25T10:27:37.832Z,18.00
2023-02-25T10:32:37.378Z,10.80
2023-02-25T10:35:24.396Z,12.63
2023-02-25T10:37:53.084Z,13.65
2023-02-25T10:40:25.380Z,14.70
2023-02-25T10:42:55.568Z,12.75
2023-02-25T10:45:28.387Z,13.05
2023-02-25T10:48:04.266Z,11.55
2023-02-25T10:50:44.878Z,13.43
2023-02-25T10:53:18.792Z,14.80
2023-02-25T10:55:54.884Z,11.57
2023-02-25T10:58:28.383Z,12.32
2023-02-25T11:01:00.729Z,15.65
2023-02-25T11:03:31.658Z,12.23
2023-02-25T11:06:23.408Z,11.30
2023-02-25T11:08:52.509Z,13.27
2023-02-25T11:11:26.223Z,11.57
2023-02-25T11:14:01.333Z,10.80
2023-02-25T11:16:31.081Z,16.40
2023-02-25T11:19:01.512Z,14.50
2023-02-25T11:21:36.212Z,10.23
2023-02-25T11:24:12.611Z,8.13
2023-02-25T11:26:45.181Z,10.45
2023-02-25T11:29:20.773Z,8.63
2023-02-25T11:31:55.285Z,10.65
2023-02-25T11:34:29.394Z,9.60
2023-02-25T11:37:00.185Z,14.55
2023-02-25T11:39:32.980Z,10.85
2023-02-25T11:42:23.250Z,10.65
2023-02-25T11:44:50.311Z,10.13
2023-02-25T11:47:27.294Z,11.70
2023-02-25T11:50:05.233Z,10.20
2023-02-25T11:52:53.351Z,7.10
2023-02-25T11:55:51.789Z,8.07
2023-02-25T11:58:25.067Z,19.77
2023-02-25T12:01:04.939Z,14.75
2023-02-25T12:04:01.343Z,10.73
2023-02-25T12:06:43.521Z,12.75
2023-02-25T12:09:31.819Z,13.27
2023-02-25T12:12:44.964Z,10.35
2023-02-25T12:15:27.133Z,12.15
2023-02-25T12:18:12.295Z,13.10
2023-02-25T12:21:24.111Z,13.68
2023-02-25T12:24:26.460Z,10.77
2023-02-25T12:27:40.337Z,14.63
2023-02-25T12:30:16.627Z,16.48
2023-02-25T12:33:02.300Z,14.63
2023-02-25T12:35:48.248Z,13.68
2023-02-25T12:38:18.485Z,12.88
2023-02-25T12:41:16.674Z,14.50
2023-02-25T12:43:56.011Z,13.43
2023-02-25T12:46:47.967Z,14.98
2023-02-25T12:49:24.000Z,14.43
2023-02-25T12:52:00.248Z,15.90
2023-02-25T12:54:57.637Z,14.52
2023-02-25T12:57:34.591Z,12.35
2023-02-25T13:00:39.360Z,13.90
2023-02-25T13:03:33.313Z,12.48
2023-02-25T13:06:21.059Z,13.25
2023-02-25T13:09:01.264Z,12.40
2023-02-25T13:12:10.548Z,13.90
2023-02-25T13:15:04.846Z,12.70
2023-02-25T13:17:50.709Z,12.05
2023-02-25T13:20:30.121Z,13.13
2023-02-25T13:23:22.997Z,14.60
2023-02-25T13:26:18.908Z,12.05
2023-02-25T13:29:01.935Z,13.70
2023-02-25T13:34:23.168Z,14.35
2023-02-25T13:37:04.655Z,15.88
2023-02-25T13:39:50.069Z,15.30
2023-02-25T13:42:17.212Z,16.90
2023-02-25T13:45:02.488Z,18.58
2023-02-25T13:47:57.562Z,15.13
2023-02-25T13:50:33.750Z,13.98
2023-02-25T13:53:13.499Z,15.25
2023-02-25T13:56:00.785Z,12.68
2023-02-25T13:58:46.484Z,11.80
2023-02-25T14:01:20.039Z,15.63
2023-02-25T14:04:24.144Z,15.25
2023-02-25T14:07:20.611Z,13.15
2023-02-25T14:09:50.775Z,15.50
2023-02-25T14:12:39.280Z,19.67
2023-02-25T14:15:37.369Z,17.30
2023-02-25T14:18:13.334Z,16.90
2023-02-25T14:21:02.110Z,19.33
2023-02-25T14:23:48.447Z,13.07
2023-02-25T14:26:37.749Z,15.45
2023-02-25T14:29:16.329Z,15.30
2023-02-25T14:31:49.602Z,15.88
2023-02-25T14:34:35.450Z,21.33
2023-02-25T14:37:28.701Z,15.95
2023-02-25T14:40:27.298Z,15.05
2023-02-25T14:43:06.210Z,18.33
2023-02-25T14:45:40.372Z,14.35
2023-02-25T14:48:10.451Z,15.52
2023-02-25T14:50:51.529Z,18.75
2023-02-25T14:53:48.283Z,17.13
2023-02-25T14:56:37.387Z,19.58
2023-02-25T14:59:25.504Z,15.13
2023-02-25T15:02:17.653Z,18.90
2023-02-25T15:04:59.914Z,17.37
2023-02-25T15:07:44.561Z,18.75
2023-02-25T15:10:43.319Z,16.83
2023-02-25T15:13:10.449Z,15.63
2023-02-25T15:15:47.145Z,16.85
2023-02-25T15:18:35.984Z,17.08
2023-02-25T15:21:27.808Z,6.28
2023-02-25T15:23:55.137Z,5.43
2023-02-25T15:26:44.363Z,2.72
2023-02-25T15:29:29.967Z,2.00
2023-02-25T15:32:22.430Z,2.92
2023-02-25T15:34:56.859Z,4.20
2023-02-25T15:37:32.104Z,4.95
2023-02-25T15:40:24.516Z,4.82
2023-02-25T15:42:54.191Z,2.42
2023-02-25T15:45:27.823Z,2.33
2023-02-25T15:48:21.661Z,3.33
2023-02-25T15:50:48.971Z,5.93
2023-02-25T15:53:22.116Z,3.40
2023-02-25T15:55:54.068Z,8.07
2023-02-25T15:58:24.428Z,2.80
2023-02-25T16:01:28.784Z,2.45
2023-02-25T16:03:56.041Z,2.20
2023-02-25T16:06:32.465Z,1.60
2023-02-25T16:09:18.553Z,13.18
2023-02-25T16:11:49.903Z,4.53
2023-02-25T16:14:29.005Z,5.82
2023-02-25T16:16:59.726Z,4.75
2023-02-25T16:19:31.017Z,4.05
2023-02-25T16:22:02.994Z,4.50
2023-02-25T16:24:30.987Z,8.60
2023-02-25T16:27:02.897Z,3.22
2023-02-25T16:30:03.696Z,2.45
2023-02-25T16:32:46.039Z,2.80
2023-02-25T16:35:33.964Z,1.65
2023-02-25T16:38:05.131Z,2.30
2023-02-25T16:40:38.482Z,2.05
2023-02-25T16:43:07.632Z,2.67
2023-02-25T16:45:42.607Z,2.58
2023-02-25T16:48:19.470Z,2.22
2023-02-25T16:50:49.040Z,3.92
2023-02-25T16:53:25.553Z,0.60
2023-02-25T16:55:59.944Z,2.20
2023-02-25T16:58:30.579Z,0.90
2023-02-25T17:01:00.607Z,1.67
2023-02-25T17:03:41.775Z,1.73
2023-02-25T17:06:17.204Z,1.40
2023-02-25T17:08:46.159Z,2.38
2023-02-25T17:11:18.128Z,1.80
2023-02-25T17:13:48.296Z,1.52
2023-02-25T17:16:29.033Z,1.35
2023-02-25T17:18:59.685Z,1.35
2023-02-25T17:21:33.905Z,2.70
2023-02-25T17:24:03.174Z,1.52
2023-02-25T17:26:31.743Z,1.52
2023-02-25T17:29:02.021Z,1.30
2023-02-25T17:31:30.765Z,1.10
2023-02-25T17:34:01.294Z,1.00
2023-02-25T17:36:32.488Z,0.95
2023-02-25T17:39:03.376Z,1.15
2023-02-25T17:41:30.762Z,1.20
2023-02-25T17:43:57.987Z,0.95
2023-02-25T17:46:25.350Z,1.15
2023-02-25T17:48:59.640Z,0.85
2023-02-25T17:51:36.573Z,1.00
2023-02-25T17:54:08.027Z,1.92
2023-02-25T17:56:36.815Z,3.70
2023-02-25T17:59:07.703Z,1.92
2023-02-25T18:01:54.739Z,0.82
2023-02-25T18:04:40.852Z,2.40
2023-02-25T18:07:33.327Z,1.65
2023-02-25T18:10:01.942Z,1.23
2023-02-25T18:12:30.806Z,3.55
2023-02-25T18:15:03.709Z,1.95
2023-02-25T18:17:38.116Z,3.45
2023-02-25T18:20:09.206Z,2.95
2023-02-25T18:22:50.773Z,2.75
2023-02-25T18:25:37.615Z,3.22
2023-02-25T18:28:10.108Z,3.65
2023-02-25T18:30:37.366Z,2.97
2023-02-25T18:33:04.761Z,4.05
2023-02-25T18:35:32.981Z,4.47
2023-02-25T18:38:01.019Z,5.78
2023-02-25T18:40:35.992Z,4.15
2023-02-25T18:43:04.526Z,2.78
2023-02-25T18:45:33.754Z,4.00
2023-02-25T18:48:01.881Z,2.70
2023-02-25T18:50:33.187Z,3.20
2023-02-25T18:53:01.201Z,3.70
2023-02-25T18:55:30.508Z,4.68
2023-02-25T18:57:58.989Z,3.20
2023-02-25T19:00:27.573Z,2.13
2023-02-25T19:03:05.025Z,3.85
2023-02-25T19:05:32.267Z,3.97
2023-02-25T19:07:59.780Z,3.22
2023-02-25T19:10:30.543Z,4.15
2023-02-25T19:13:06.992Z,4.13
2023-02-25T19:15:34.618Z,4.25
2023-02-25T19:18:01.782Z,4.63
2023-02-25T19:20:29.095Z,3.08
2023-02-25T19:22:56.198Z,2.55
2023-02-25T19:25:34.460Z,3.42
2023-02-25T19:28:02.370Z,3.53
2023-02-25T19:30:34.222Z,3.47
2023-02-25T19:33:04.735Z,4.10
2023-02-25T19:35:34.981Z,4.82
2023-02-25T19:38:03.103Z,5.25
2023-02-25T19:40:30.385Z,3.38
2023-02-25T19:42:58.526Z,4.55
2023-02-25T19:45:27.318Z,5.32
2023-02-25T19:47:55.325Z,4.75
2023-02-25T19:50:25.169Z,5.20
2023-02-25T19:52:55.875Z,3.25
2023-02-25T19:55:23.400Z,4.43
2023-02-25T19:57:50.768Z,6.55
2023-02-25T20:00:20.892Z,4.63
2023-02-25T20:02:48.988Z,4.38
2023-02-25T20:05:16.208Z,4.07
2023-02-25T20:07:43.507Z,7.22
2023-02-25T20:10:13.245Z,5.78
2023-02-25T20:12:42.344Z,6.68
2023-02-25T20:15:12.302Z,5.18
2023-02-25T20:17:40.772Z,4.68
2023-02-25T20:20:08.770Z,5.30
2023-02-25T20:22:38.031Z,5.90
2023-02-25T20:25:06.532Z,6.05
2023-02-25T20:27:36.369Z,4.93
2023-02-25T20:30:05.058Z,5.22
2023-02-25T20:32:32.563Z,4.10
2023-02-25T20:34:59.928Z,3.97
2023-02-25T20:37:37.572Z,3.17
2023-02-25T20:40:08.563Z,4.35
2023-02-25T20:42:36.501Z,3.90
2023-02-25T20:45:04.490Z,5.30
2023-02-25T20:47:37.737Z,4.95
2023-02-25T20:50:06.658Z,4.10
2023-02-25T20:52:34.398Z,3.72
2023-02-25T20:55:01.994Z,4.57
2023-02-25T20:57:29.174Z,3.58
2023-02-25T20:59:56.520Z,4.95
2023-02-25T21:02:23.765Z,4.60
2023-02-25T21:04:51.581Z,4.07
2023-02-25T21:07:18.509Z,4.70
2023-02-25T21:09:45.836Z,4.63
2023-02-25T21:12:12.740Z,4.30
2023-02-25T21:14:39.775Z,4.13
2023-02-25T21:17:09.836Z,4.15
2023-02-25T21:19:38.905Z,4.15
2023-02-25T21:22:07.582Z,3.45
2023-02-25T21:24:34.967Z,4.95
2023-02-25T21:27:02.376Z,3.97
2023-02-25T21:29:29.536Z,3.80
2023-02-25T21:31:56.843Z,4.22
2023-02-25T21:34:24.549Z,2.50
2023-02-25T21:36:51.726Z,5.57
2023-02-25T21:39:19.272Z,4.50
2023-02-25T21:41:46.503Z,4.32
2023-02-25T21:44:14.032Z,4.53
2023-02-25T21:46:42.369Z,4.40
2023-02-25T21:49:10.881Z,5.88
2023-02-25T21:51:38.099Z,4.88
2023-02-25T21:54:05.468Z,5.25
2023-02-25T21:56:32.588Z,3.60
2023-02-25T21:59:03.654Z,3.53
2023-02-25T22:01:36.837Z,3.83
2023-02-25T22:04:04.942Z,6.30
2023-02-25T22:06:32.572Z,4.25
2023-02-25T22:09:00.572Z,5.50
2023-02-25T22:11:30.646Z,3.22
2023-02-25T22:14:02.401Z,5.32
2023-02-25T22:16:29.822Z,3.13
2023-02-25T22:18:56.927Z,3.60
2023-02-25T22:21:26.564Z,4.35
2023-02-25T22:23:56.297Z,2.75
2023-02-25T22:26:26.144Z,3.45
2023-02-25T22:29:02.011Z,7.18
2023-02-25T22:31:29.311Z,6.43
2023-02-25T22:33:57.464Z,5.00
2023-02-25T22:36:25.690Z,8.05
2023-02-25T22:38:53.669Z,4.03
2023-02-25T22:41:27.028Z,5.88
2023-02-25T22:43:54.533Z,5.57
2023-02-25T22:46:36.465Z,3.97
2023-02-25T22:49:05.146Z,3.85
2023-02-25T22:51:37.489Z,5.03
2023-02-25T22:54:05.294Z,3.15
2023-02-25T22:56:32.631Z,4.57
2023-02-25T22:59:00.348Z,4.88
2023-02-25T23:01:27.841Z,4.47
2023-02-25T23:03:56.115Z,6.03
2023-02-25T23:06:37.445Z,5.22
2023-02-25T23:09:09.447Z,4.60
2023-02-25T23:11:36.393Z,3.92
2023-02-25T23:14:04.987Z,4.05
2023-02-25T23:16:36.257Z,5.30
2023-02-25T23:19:05.223Z,4.65
2023-02-25T23:21:33.774Z,5.85
2023-02-25T23:24:02.287Z,3.75
2023-02-25T23:26:33.693Z,4.43
2023-02-25T23:29:03.602Z,3.50
2023-02-25T23:31:34.014Z,4.60
2023-02-25T23:34:04.239Z,6.60
2023-02-25T23:36:31.379Z,10.82
2023-02-25T23:39:02.909Z,9.38
2023-02-25T23:41:30.285Z,5.70
2023-02-25T23:44:01.211Z,3.67
2023-02-25T23:46:29.951Z,4.05
2023-02-25T23:49:00.169Z,6.32
2023-02-25T23:51:27.856Z,3.63
2023-02-25T23:53:57.930Z,6.65
2023-02-25T23:56:27.248Z,2.17
2023-02-25T23:58:55.415Z,4.10
